createdAt,value
2023-02-17T00:00:53.904Z,98459.50
2023-02-17T00:03:20.636Z,98458.38
2023-02-17T00:05:48.916Z,98452.22
2023-02-17T00:08:16.465Z,98444.78
2023-02-17T00:10:43.001Z,98450.69
2023-02-17T00:13:09.546Z,98448.50
2023-02-17T00:15:38.070Z,98439.19
2023-02-17T00:18:04.696Z,98445.56
2023-02-17T00:20:31.225Z,98443.00
2023-02-17T00:22:57.730Z,98450.81
2023-02-17T00:25:24.420Z,98447.25
2023-02-17T00:27:51.093Z,98445.97
2023-02-17T00:30:18.045Z,98453.97
2023-02-17T00:32:44.588Z,98452.09
2023-02-17T00:35:12.541Z,98451.47
2023-02-17T00:37:41.206Z,98448.94
2023-02-17T00:40:07.947Z,98454.09
2023-02-17T00:42:34.517Z,98461.13
2023-02-17T00:45:01.057Z,98453.34
2023-02-17T00:47:27.521Z,98464.81
2023-02-17T00:49:54.029Z,98469.38
2023-02-17T00:52:20.510Z,98469.84
2023-02-17T00:54:47.004Z,98473.91
2023-02-17T00:57:13.559Z,98463.16
2023-02-17T00:59:40.236Z,98454.56
2023-02-17T01:02:07.899Z,98455.03
2023-02-17T01:04:36.000Z,98454.25
2023-02-17T01:07:02.543Z,98452.53
2023-02-17T01:09:29.031Z,98446.75
2023-02-17T01:11:55.548Z,98439.75
2023-02-17T01:14:22.101Z,98445.38
2023-02-17T01:16:49.168Z,98441.31
2023-02-17T01:19:17.630Z,98439.41
2023-02-17T01:21:47.162Z,98441.94
2023-02-17T01:24:13.879Z,98440.25
2023-02-17T01:26:40.881Z,98436.81
2023-02-17T01:29:07.841Z,98439.75
2023-02-17T01:31:34.611Z,98442.16
2023-02-17T01:34:02.098Z,98443.66
2023-02-17T01:36:28.928Z,98437.72
2023-02-17T01:38:55.911Z,98430.53
2023-02-17T01:41:23.644Z,98432.00
2023-02-17T01:44:07.309Z,98436.03
2023-02-17T01:46:37.519Z,98433.03
2023-02-17T01:49:11.367Z,98426.69
2023-02-17T01:51:38.599Z,98430.69
2023-02-17T01:54:24.337Z,98430.06
2023-02-17T01:56:51.366Z,98421.47
2023-02-17T01:59:21.181Z,98418.34
2023-02-17T02:01:53.976Z,98414.81
2023-02-17T02:04:22.499Z,98411.94
2023-02-17T02:06:49.036Z,98417.25
2023-02-17T02:09:18.889Z,98410.66
2023-02-17T02:11:47.381Z,98401.53
2023-02-17T02:14:16.365Z,98407.75
2023-02-17T02:16:42.874Z,98408.19
2023-02-17T02:19:28.042Z,98405.22
2023-02-17T02:22:10.170Z,98408.63
2023-02-17T02:24:39.503Z,98405.78
2023-02-17T02:27:15.447Z,98391.75
2023-02-17T02:29:54.169Z,98395.38
2023-02-17T02:32:43.712Z,98388.34
2023-02-17T02:35:26.420Z,98382.84
2023-02-17T02:37:58.466Z,98382.53
2023-02-17T02:40:28.775Z,98369.31
2023-02-17T02:42:56.191Z,98380.91
2023-02-17T02:45:22.833Z,98384.84
2023-02-17T02:47:51.614Z,98379.91
2023-02-17T02:50:42.020Z,98376.94
2023-02-17T02:53:11.582Z,98395.09
2023-02-17T02:55:50.476Z,98393.00
2023-02-17T02:58:21.209Z,98394.34
2023-02-17T03:00:57.160Z,98397.50
2023-02-17T03:03:26.798Z,98400.47
2023-02-17T03:06:13.930Z,98400.25
2023-02-17T03:08:44.209Z,98375.50
2023-02-17T03:11:11.428Z,98381.94
2023-02-17T03:13:39.576Z,98382.13
2023-02-17T03:16:08.874Z,98384.72
2023-02-17T03:18:35.954Z,98382.31
2023-02-17T03:21:06.526Z,98385.19
2023-02-17T03:23:33.041Z,98385.38
2023-02-17T03:25:59.548Z,98386.31
2023-02-17T03:28:26.111Z,98390.03
2023-02-17T03:30:52.676Z,98379.41
2023-02-17T03:33:19.171Z,98382.94
2023-02-17T03:35:45.716Z,98394.22
2023-02-17T03:38:12.295Z,98389.31
2023-02-17T03:40:38.808Z,98394.56
2023-02-17T03:43:05.333Z,98389.59
2023-02-17T03:45:31.970Z,98390.81
2023-02-17T03:47:58.457Z,98394.28
2023-02-17T03:50:25.318Z,98389.44
2023-02-17T03:52:51.891Z,98392.09
2023-02-17T03:55:18.400Z,98384.88
2023-02-17T03:57:44.906Z,98384.53
2023-02-17T04:00:11.606Z,98383.66
2023-02-17T04:02:43.935Z,98378.88
2023-02-17T04:05:10.628Z,98387.31
2023-02-17T04:07:37.111Z,98380.53
2023-02-17T04:10:05.874Z,98395.41
2023-02-17T04:12:33.165Z,98377.47
2023-02-17T04:14:59.641Z,98385.59
2023-02-17T04:17:26.081Z,98387.19
2023-02-17T04:19:52.533Z,98384.63
2023-02-17T04:22:19.007Z,98392.09
2023-02-17T04:24:45.493Z,98393.63
2023-02-17T04:27:11.959Z,98385.97
2023-02-17T04:29:38.426Z,98390.50
2023-02-17T04:32:04.989Z,98393.63
2023-02-17T04:34:31.618Z,98382.84
2023-02-17T04:36:58.070Z,98375.50
2023-02-17T04:39:24.543Z,98372.09
2023-02-17T04:41:51.042Z,98375.53
2023-02-17T04:44:17.552Z,98375.34
2023-02-17T04:46:44.006Z,98380.31
2023-02-17T04:49:10.506Z,98376.47
2023-02-17T04:51:37.012Z,98377.91
2023-02-17T04:54:03.536Z,98380.69
2023-02-17T04:56:29.996Z,98376.91
2023-02-17T04:58:56.463Z,98382.38
2023-02-17T05:01:23.106Z,98378.25
2023-02-17T05:03:49.816Z,98381.53
2023-02-17T05:06:16.310Z,98382.72
2023-02-17T05:08:42.826Z,98368.69
2023-02-17T05:11:09.424Z,98367.38
2023-02-17T05:13:35.879Z,98364.00
2023-02-17T05:16:02.465Z,98366.59
2023-02-17T05:18:28.965Z,98367.75
2023-02-17T05:20:55.431Z,98370.66
2023-02-17T05:23:21.945Z,98355.47
2023-02-17T05:25:48.430Z,98350.69
2023-02-17T05:28:14.970Z,98347.44
2023-02-17T05:30:41.434Z,98354.56
2023-02-17T05:33:07.920Z,98368.69
2023-02-17T05:35:37.328Z,98368.94
2023-02-17T05:38:03.829Z,98365.09
2023-02-17T05:40:30.322Z,98369.72
2023-02-17T05:42:56.872Z,98368.03
2023-02-17T05:45:23.383Z,98363.97
2023-02-17T05:47:49.846Z,98367.56
2023-02-17T05:50:16.321Z,98370.47
2023-02-17T05:52:42.845Z,98364.63
2023-02-17T05:55:09.343Z,98379.13
2023-02-17T05:57:35.876Z,98372.81
2023-02-17T06:00:02.732Z,98368.00
2023-02-17T06:02:38.520Z,98367.81
2023-02-17T06:05:05.213Z,98363.69
2023-02-17T06:07:31.749Z,98372.13
2023-02-17T06:09:58.479Z,98365.88
2023-02-17T06:12:25.112Z,98376.41
2023-02-17T06:14:51.559Z,98374.78
2023-02-17T06:17:18.002Z,98367.91
2023-02-17T06:19:44.517Z,98378.81
2023-02-17T06:22:10.972Z,98374.13
2023-02-17T06:24:37.463Z,98370.69
2023-02-17T06:27:03.928Z,98376.88
2023-02-17T06:29:30.419Z,98380.59
2023-02-17T06:31:56.961Z,98372.72
2023-02-17T06:34:23.454Z,98370.50
2023-02-17T06:36:49.951Z,98373.56
2023-02-17T06:39:16.473Z,98383.47
2023-02-17T06:41:42.993Z,98372.75
2023-02-17T06:44:09.780Z,98381.13
2023-02-17T06:46:36.252Z,98370.50
2023-02-17T06:49:02.971Z,98380.19
2023-02-17T06:51:29.501Z,98376.28
2023-02-17T06:53:56.351Z,98383.25
2023-02-17T06:56:22.908Z,98368.16
2023-02-17T06:58:49.520Z,98369.38
2023-02-17T07:01:17.301Z,98376.53
2023-02-17T07:03:43.945Z,98375.88
2023-02-17T07:06:10.473Z,98372.94
2023-02-17T07:08:37.084Z,98366.06
2023-02-17T07:11:10.574Z,98362.72
2023-02-17T07:13:37.744Z,98369.50
2023-02-17T07:16:04.691Z,98375.72
2023-02-17T07:18:31.385Z,98380.91
2023-02-17T07:20:57.929Z,98371.53
2023-02-17T07:23:24.465Z,98376.41
2023-02-17T07:25:50.940Z,98383.56
2023-02-17T07:28:17.588Z,98368.78
2023-02-17T07:30:44.496Z,98370.41
2023-02-17T07:33:11.146Z,98371.78
2023-02-17T07:35:44.098Z,98365.69
2023-02-17T07:38:10.615Z,98370.59
2023-02-17T07:40:37.156Z,98371.38
2023-02-17T07:43:03.608Z,98366.50
2023-02-17T07:45:30.157Z,98375.09
2023-02-17T07:47:56.689Z,98371.50
2023-02-17T07:50:23.211Z,98372.50
2023-02-17T07:52:50.262Z,98368.84
2023-02-17T07:55:16.988Z,98366.78
2023-02-17T07:57:43.449Z,98360.59
2023-02-17T08:00:10.956Z,98360.69
2023-02-17T08:02:40.630Z,98364.34
2023-02-17T08:05:07.186Z,98360.50
2023-02-17T08:07:33.752Z,98356.66
2023-02-17T08:10:19.037Z,98354.25
2023-02-17T08:13:04.236Z,98355.59
2023-02-17T08:15:32.778Z,98358.31
2023-02-17T08:18:00.726Z,98351.56
2023-02-17T08:20:27.888Z,98355.13
2023-02-17T08:22:54.406Z,98351.59
2023-02-17T08:25:20.944Z,98350.13
2023-02-17T08:27:47.456Z,98356.13
2023-02-17T08:30:14.115Z,98352.88
2023-02-17T08:32:40.630Z,98353.34
2023-02-17T08:35:07.204Z,98360.34
2023-02-17T08:37:33.715Z,98350.13
2023-02-17T08:40:00.364Z,98343.91
2023-02-17T08:42:27.040Z,98343.00
2023-02-17T08:44:53.591Z,98350.16
2023-02-17T08:47:20.051Z,98345.72
2023-02-17T08:49:46.545Z,98336.56
2023-02-17T08:52:13.065Z,98335.72
2023-02-17T08:54:39.657Z,98326.28
2023-02-17T08:57:06.175Z,98329.50
2023-02-17T08:59:32.722Z,98330.69
2023-02-17T09:01:59.248Z,98328.78
2023-02-17T09:04:25.976Z,98330.78
2023-02-17T09:06:53.618Z,98328.56
2023-02-17T09:09:22.784Z,98330.03
2023-02-17T09:11:49.254Z,98333.19
2023-02-17T09:14:15.667Z,98325.06
2023-02-17T09:16:42.244Z,98323.34
2023-02-17T09:19:08.894Z,98318.53
2023-02-17T09:21:35.485Z,98313.19
2023-02-17T09:24:01.972Z,98306.84
2023-02-17T09:26:28.511Z,98313.34
2023-02-17T09:28:55.109Z,98297.00
2023-02-17T09:31:23.016Z,98303.19
2023-02-17T09:33:50.023Z,98301.63
2023-02-17T09:36:18.431Z,98305.66
2023-02-17T09:38:45.070Z,98298.88
2023-02-17T09:41:16.938Z,98300.75
2023-02-17T09:43:43.959Z,98299.44
2023-02-17T09:46:14.989Z,98296.03
2023-02-17T09:48:42.661Z,98291.53
2023-02-17T09:51:14.117Z,98290.59
2023-02-17T09:54:02.917Z,98288.28
2023-02-17T09:56:33.690Z,98289.13
2023-02-17T09:59:02.214Z,98290.47
2023-02-17T10:01:30.988Z,98279.28
2023-02-17T10:04:02.313Z,98287.25
2023-02-17T10:06:40.123Z,98273.44
2023-02-17T10:09:18.336Z,98275.81
2023-02-17T10:11:53.493Z,98278.72
2023-02-17T10:14:28.479Z,98275.38
2023-02-17T10:17:00.518Z,98273.16
2023-02-17T10:19:32.356Z,98274.53
2023-02-17T10:22:05.769Z,98281.69
2023-02-17T10:24:32.266Z,98282.41
2023-02-17T10:26:58.712Z,98277.28
2023-02-17T10:29:25.164Z,98273.06
2023-02-17T10:32:04.866Z,98279.16
2023-02-17T10:34:36.140Z,98254.31
2023-02-17T10:37:04.080Z,98250.34
2023-02-17T10:39:50.206Z,98254.19
2023-02-17T10:42:20.220Z,98242.28
2023-02-17T10:44:48.465Z,98243.56
2023-02-17T10:47:15.699Z,98243.81
2023-02-17T10:49:45.772Z,98241.50
2023-02-17T10:52:32.182Z,98242.78
2023-02-17T10:55:20.849Z,98235.38
2023-02-17T10:57:52.641Z,98238.63
2023-02-17T11:00:19.440Z,98230.47
2023-02-17T11:02:47.227Z,98227.09
2023-02-17T11:05:27.660Z,98210.53
2023-02-17T11:08:02.290Z,98211.16
2023-02-17T11:10:36.709Z,98204.00
2023-02-17T11:13:04.062Z,98200.22
2023-02-17T11:15:43.712Z,98207.09
2023-02-17T11:18:18.129Z,98207.75
2023-02-17T11:20:45.081Z,98214.19
2023-02-17T11:23:14.323Z,98208.66
2023-02-17T11:25:42.204Z,98197.16
2023-02-17T11:28:12.805Z,98187.03
2023-02-17T11:30:40.584Z,98191.63
2023-02-17T11:33:14.242Z,98189.66
2023-02-17T11:35:41.645Z,98185.06
2023-02-17T11:38:15.350Z,98182.56
2023-02-17T11:40:51.397Z,98186.34
2023-02-17T11:43:20.890Z,98172.63
2023-02-17T11:45:56.315Z,98170.34
2023-02-17T11:48:38.193Z,98163.81
2023-02-17T11:51:13.811Z,98171.69
2023-02-17T11:53:52.379Z,98163.16
2023-02-17T11:56:22.498Z,98166.19
2023-02-17T11:58:52.046Z,98159.03
2023-02-17T12:01:18.560Z,98151.91
2023-02-17T12:04:04.292Z,98149.44
2023-02-17T12:06:43.210Z,98135.38
2023-02-17T12:09:21.904Z,98146.72
2023-02-17T12:12:07.040Z,98137.97
2023-02-17T12:14:42.409Z,98134.88
2023-02-17T12:17:24.204Z,98131.94
2023-02-17T12:19:53.699Z,98129.13
2023-02-17T12:22:39.090Z,98134.69
2023-02-17T12:25:26.761Z,98137.94
2023-02-17T12:28:00.473Z,98120.56
2023-02-17T12:30:33.331Z,98122.09
2023-02-17T12:33:15.877Z,98114.41
2023-02-17T12:35:55.637Z,98098.28
2023-02-17T12:38:25.459Z,98107.19
2023-02-17T12:41:10.253Z,98108.16
2023-02-17T12:43:40.894Z,98102.09
2023-02-17T12:46:10.725Z,98097.72
2023-02-17T12:48:59.620Z,98085.19
2023-02-17T12:51:33.563Z,98085.63
2023-02-17T12:54:00.016Z,98079.09
2023-02-17T12:56:34.014Z,98088.31
2023-02-17T12:59:23.777Z,98084.66
2023-02-17T13:02:00.564Z,98079.38
2023-02-17T13:04:28.457Z,98075.94
2023-02-17T13:07:07.949Z,98072.69
2023-02-17T13:09:36.469Z,98066.66
2023-02-17T13:12:10.469Z,98061.06
2023-02-17T13:14:42.225Z,98071.28
2023-02-17T13:17:27.674Z,98069.34
2023-02-17T13:20:09.553Z,98075.22
2023-02-17T13:22:36.961Z,98068.03
2023-02-17T13:25:03.834Z,98059.25
2023-02-17T13:27:37.541Z,98061.53
2023-02-17T13:30:22.749Z,98061.66
2023-02-17T13:33:00.718Z,98066.66
2023-02-17T13:35:27.174Z,98062.06
2023-02-17T13:37:54.536Z,98055.84
2023-02-17T13:40:22.317Z,98059.00
2023-02-17T13:42:49.978Z,98067.03
2023-02-17T13:45:45.931Z,98065.28
2023-02-17T13:48:24.036Z,98059.22
2023-02-17T13:50:58.309Z,98066.41
2023-02-17T13:53:24.972Z,98056.06
2023-02-17T13:55:52.114Z,98064.13
2023-02-17T13:58:24.613Z,98061.06
2023-02-17T14:00:52.497Z,98061.09
2023-02-17T14:03:30.209Z,98067.63
2023-02-17T14:05:57.930Z,98060.13
2023-02-17T14:08:27.387Z,98061.94
2023-02-17T14:10:54.068Z,98058.88
2023-02-17T14:13:22.482Z,98056.75
2023-02-17T14:15:59.365Z,98058.28
2023-02-17T14:18:34.941Z,98041.44
2023-02-17T14:21:09.341Z,98045.88
2023-02-17T14:23:47.265Z,98054.25
2023-02-17T14:26:15.793Z,98060.41
2023-02-17T14:28:52.380Z,98054.94
2023-02-17T14:31:19.841Z,98047.69
2023-02-17T14:33:57.636Z,98046.84
2023-02-17T14:36:42.461Z,98037.44
2023-02-17T14:39:13.087Z,98039.44
2023-02-17T14:41:39.581Z,98033.56
2023-02-17T14:44:06.163Z,98028.50
2023-02-17T14:46:33.074Z,98035.38
2023-02-17T14:48:59.596Z,98028.25
2023-02-17T14:51:32.183Z,98037.09
2023-02-17T14:53:58.642Z,98034.22
2023-02-17T14:56:26.720Z,98027.56
2023-02-17T14:58:53.255Z,98034.78
2023-02-17T15:01:20.691Z,98038.16
2023-02-17T15:03:47.524Z,98027.84
2023-02-17T15:06:15.342Z,98018.22
2023-02-17T15:08:42.264Z,98018.25
2023-02-17T15:11:13.809Z,98025.69
2023-02-17T15:13:40.460Z,98030.13
2023-02-17T15:16:08.203Z,98025.00
2023-02-17T15:18:35.040Z,98007.72
2023-02-17T15:21:01.528Z,98013.84
2023-02-17T15:23:37.753Z,98013.00
2023-02-17T15:26:05.834Z,98007.34
2023-02-17T15:28:32.476Z,98007.34
2023-02-17T15:30:58.966Z,98002.56
2023-02-17T15:33:25.485Z,98006.47
2023-02-17T15:35:56.246Z,98006.91
2023-02-17T15:38:23.271Z,98008.94
2023-02-17T15:40:50.054Z,98009.91
2023-02-17T15:43:19.556Z,98006.47
2023-02-17T15:45:46.330Z,98009.50
2023-02-17T15:48:19.711Z,98004.94
2023-02-17T15:50:46.191Z,98005.75
2023-02-17T15:53:12.680Z,98007.59
2023-02-17T15:55:39.404Z,98004.88
2023-02-17T15:58:10.353Z,98007.69
2023-02-17T16:00:36.909Z,98004.88
2023-02-17T16:03:03.531Z,98000.13
2023-02-17T16:05:30.510Z,98000.25
2023-02-17T16:07:57.121Z,97998.66
2023-02-17T16:10:27.121Z,97998.22
2023-02-17T16:12:55.244Z,98011.88
2023-02-17T16:15:23.025Z,98004.00
2023-02-17T16:17:50.754Z,98010.69
2023-02-17T16:20:22.052Z,98006.84
2023-02-17T16:22:48.869Z,98002.91
2023-02-17T16:25:16.000Z,98000.00
2023-02-17T16:27:43.328Z,98012.41
2023-02-17T16:30:16.771Z,98004.41
2023-02-17T16:32:43.386Z,98008.06
2023-02-17T16:35:13.915Z,97998.13
2023-02-17T16:37:40.529Z,97991.84
2023-02-17T16:40:14.880Z,97994.34
2023-02-17T16:42:41.445Z,97997.13
2023-02-17T16:45:13.747Z,98002.63
2023-02-17T16:47:40.215Z,98010.44
2023-02-17T16:50:08.521Z,98014.38
2023-02-17T16:52:34.982Z,98007.09
2023-02-17T16:55:01.436Z,98007.00
2023-02-17T16:57:27.946Z,98011.63
2023-02-17T16:59:54.559Z,98002.09
2023-02-17T17:02:22.054Z,98011.59
2023-02-17T17:04:48.611Z,98017.72
2023-02-17T17:07:16.123Z,98014.69
2023-02-17T17:09:45.263Z,98017.94
2023-02-17T17:12:15.318Z,98011.84
2023-02-17T17:14:41.884Z,98015.13
2023-02-17T17:17:09.939Z,98014.13
2023-02-17T17:19:36.348Z,98012.03
2023-02-17T17:22:02.836Z,98014.72
2023-02-17T17:24:30.673Z,98019.81
2023-02-17T17:26:57.100Z,98019.78
2023-02-17T17:29:23.535Z,98022.91
2023-02-17T17:31:50.203Z,98017.38
2023-02-17T17:34:16.767Z,98011.88
2023-02-17T17:36:44.899Z,98018.94
2023-02-17T17:39:14.459Z,98008.47
2023-02-17T17:41:40.956Z,98006.84
2023-02-17T17:44:10.084Z,98010.13
2023-02-17T17:46:37.241Z,98013.44
2023-02-17T17:49:05.929Z,98011.59
2023-02-17T17:51:33.077Z,98018.34
2023-02-17T17:53:59.721Z,98017.78
2023-02-17T17:56:27.866Z,98026.97
2023-02-17T17:58:54.953Z,98032.34
2023-02-17T18:01:21.751Z,98032.78
2023-02-17T18:03:48.849Z,98033.59
2023-02-17T18:06:20.137Z,98039.28
2023-02-17T18:08:47.595Z,98040.41
2023-02-17T18:11:15.344Z,98025.66
2023-02-17T18:13:42.383Z,98026.06
2023-02-17T18:16:09.272Z,98042.13
2023-02-17T18:18:36.801Z,98044.00
2023-02-17T18:21:03.290Z,98047.31
2023-02-17T18:23:29.728Z,98048.50
2023-02-17T18:25:56.274Z,98045.50
2023-02-17T18:28:22.750Z,98054.75
2023-02-17T18:30:49.322Z,98055.19
2023-02-17T18:33:15.836Z,98059.94
2023-02-17T18:35:44.095Z,98065.22
2023-02-17T18:38:10.776Z,98064.56
2023-02-17T18:40:40.684Z,98072.88
2023-02-17T18:43:07.656Z,98057.16
2023-02-17T18:45:34.889Z,98058.00
2023-02-17T18:48:01.363Z,98052.97
2023-02-17T18:50:32.818Z,98054.28
2023-02-17T18:52:59.889Z,98046.03
2023-02-17T18:55:26.369Z,98058.13
2023-02-17T18:57:54.063Z,98053.44
2023-02-17T19:00:20.658Z,98060.66
2023-02-17T19:02:47.336Z,98062.09
2023-02-17T19:05:13.932Z,98054.97
2023-02-17T19:07:40.421Z,98058.19
2023-02-17T19:10:07.240Z,98050.09
2023-02-17T19:12:34.241Z,98043.88
2023-02-17T19:15:00.742Z,98048.50
2023-02-17T19:17:27.240Z,98035.53
2023-02-17T19:19:53.824Z,98032.84
2023-02-17T19:22:20.473Z,98025.66
2023-02-17T19:24:50.335Z,98033.41
2023-02-17T19:27:16.812Z,98030.94
2023-02-17T19:29:43.236Z,98037.75
2023-02-17T19:32:09.748Z,98032.16
2023-02-17T19:34:37.663Z,98025.53
2023-02-17T19:37:04.568Z,98029.56
2023-02-17T19:39:31.686Z,98028.25
2023-02-17T19:41:58.139Z,98030.53
2023-02-17T19:44:24.625Z,98028.56
2023-02-17T19:46:51.178Z,98018.94
2023-02-17T19:49:17.791Z,98021.59
2023-02-17T19:51:44.385Z,98019.72
2023-02-17T19:54:10.941Z,98018.06
2023-02-17T19:56:38.872Z,98023.09
2023-02-17T19:59:05.345Z,98029.50
2023-02-17T20:01:32.583Z,98025.31
2023-02-17T20:04:01.485Z,98036.25
2023-02-17T20:06:29.729Z,98028.38
2023-02-17T20:08:58.047Z,98023.59
2023-02-17T20:11:24.943Z,98027.78
2023-02-17T20:13:51.438Z,98036.84
2023-02-17T20:16:18.027Z,98028.09
2023-02-17T20:18:46.173Z,98026.44
2023-02-17T20:21:16.938Z,98036.44
2023-02-17T20:23:43.541Z,98033.88
2023-02-17T20:26:11.402Z,98030.38
2023-02-17T20:28:38.157Z,98029.75
2023-02-17T20:31:05.800Z,98038.19
2023-02-17T20:33:32.464Z,98029.63
2023-02-17T20:35:58.910Z,98034.72
2023-02-17T20:38:25.399Z,98029.38
2023-02-17T20:40:52.193Z,98042.69
2023-02-17T20:43:18.710Z,98041.47
2023-02-17T20:45:45.652Z,98032.47
2023-02-17T20:48:12.121Z,98028.81
2023-02-17T20:50:38.811Z,98024.09
2023-02-17T20:53:05.311Z,98020.66
2023-02-17T20:55:31.812Z,98016.03
2023-02-17T20:57:58.341Z,98017.97
2023-02-17T21:00:25.784Z,98007.75
2023-02-17T21:02:52.568Z,98009.94
2023-02-17T21:05:19.639Z,97999.59
2023-02-17T21:07:46.331Z,98003.22
2023-02-17T21:10:15.874Z,97999.47
2023-02-17T21:12:42.364Z,97996.28
2023-02-17T21:15:09.157Z,97995.16
2023-02-17T21:17:35.927Z,97988.13
2023-02-17T21:20:02.800Z,97992.84
2023-02-17T21:22:29.245Z,97989.31
2023-02-17T21:24:55.796Z,97992.28
2023-02-17T21:27:22.482Z,97987.06
2023-02-17T21:29:48.952Z,97986.59
2023-02-17T21:32:15.441Z,97976.56
2023-02-17T21:34:42.096Z,97983.38
2023-02-17T21:37:08.579Z,97994.00
2023-02-17T21:39:35.511Z,97995.25
2023-02-17T21:42:02.100Z,98001.78
2023-02-17T21:44:47.134Z,98005.00
2023-02-17T21:47:13.915Z,98014.66
2023-02-17T21:49:40.445Z,98008.78
2023-02-17T21:52:06.968Z,97996.97
2023-02-17T21:54:33.425Z,98005.47
2023-02-17T21:56:59.945Z,98013.94
2023-02-17T21:59:26.408Z,98004.50
2023-02-17T22:01:52.920Z,98007.94
2023-02-17T22:04:20.056Z,98009.63
2023-02-17T22:06:46.600Z,97993.69
2023-02-17T22:09:14.804Z,97994.00
2023-02-17T22:11:42.594Z,98004.72
2023-02-17T22:14:12.077Z,97999.31
2023-02-17T22:16:39.031Z,97993.50
2023-02-17T22:19:06.522Z,97982.72
2023-02-17T22:21:33.243Z,97976.00
2023-02-17T22:24:00.927Z,97969.69
2023-02-17T22:26:27.744Z,97961.91
2023-02-17T22:28:54.651Z,97967.72
2023-02-17T22:31:22.692Z,97971.69
2023-02-17T22:33:49.688Z,97972.47
2023-02-17T22:36:18.135Z,97964.66
2023-02-17T22:38:44.583Z,97966.09
2023-02-17T22:41:12.483Z,97972.00
2023-02-17T22:43:39.780Z,97979.22
2023-02-17T22:46:07.204Z,97977.25
2023-02-17T22:48:35.204Z,97991.63
2023-02-17T22:51:08.884Z,97984.34
2023-02-17T22:53:36.286Z,97983.06
2023-02-17T22:56:03.517Z,97989.22
2023-02-17T22:58:30.115Z,97981.72
2023-02-17T23:01:04.349Z,97980.41
2023-02-17T23:03:30.919Z,97974.41
2023-02-17T23:06:01.337Z,97989.75
2023-02-17T23:08:27.812Z,97979.38
2023-02-17T23:10:54.371Z,97983.78
2023-02-17T23:13:21.038Z,97989.13
2023-02-17T23:15:47.537Z,97980.34
2023-02-17T23:18:15.452Z,97984.97
2023-02-17T23:20:43.471Z,97975.56
2023-02-17T23:23:10.032Z,97987.38
2023-02-17T23:25:38.443Z,97988.16
2023-02-17T23:28:06.092Z,97984.72
2023-02-17T23:30:33.024Z,97993.19
2023-02-17T23:33:00.012Z,97990.72
2023-02-17T23:35:26.544Z,97990.00
2023-02-17T23:37:53.044Z,97990.25
2023-02-17T23:40:19.954Z,98000.66
2023-02-17T23:42:46.593Z,98009.22
2023-02-17T23:45:13.191Z,97999.50
2023-02-17T23:47:39.620Z,97997.09
2023-02-17T23:50:06.475Z,97991.25
2023-02-17T23:52:33.624Z,98000.78
2023-02-17T23:55:00.124Z,97994.56
2023-02-17T23:57:27.701Z,97997.13
2023-02-17T23:59:54.124Z,97986.69
